createdAt,value
2022-07-30T00:00:52.636Z,122.00
2022-07-30T00:03:20.222Z,122.30
2022-07-30T00:05:48.068Z,122.60
2022-07-30T00:08:15.617Z,122.60
2022-07-30T00:10:43.180Z,122.40
2022-07-30T00:13:14.126Z,122.87
2022-07-30T00:15:41.872Z,122.37
2022-07-30T00:18:09.692Z,122.27
2022-07-30T00:20:40.273Z,122.13
2022-07-30T00:23:11.158Z,123.93
2022-07-30T00:25:39.110Z,121.70
2022-07-30T00:28:06.748Z,122.67
2022-07-30T00:30:34.296Z,121.77
2022-07-30T00:33:02.163Z,122.07
2022-07-30T00:35:29.845Z,122.07
2022-07-30T00:37:57.381Z,121.47
2022-07-30T00:40:24.605Z,121.70
2022-07-30T00:42:52.134Z,122.23
2022-07-30T00:45:20.533Z,121.83
2022-07-30T00:47:48.017Z,122.07
2022-07-30T00:50:16.675Z,122.07
2022-07-30T00:52:44.453Z,121.47
2022-07-30T00:55:14.775Z,123.23
2022-07-30T00:57:43.845Z,122.03
2022-07-30T01:00:16.034Z,136.20
2022-07-30T01:02:43.737Z,123.23
2022-07-30T01:05:11.468Z,122.10
2022-07-30T01:07:39.004Z,121.83
2022-07-30T01:10:09.981Z,122.30
2022-07-30T01:12:38.173Z,132.70
2022-07-30T01:15:10.060Z,151.20
2022-07-30T01:17:38.568Z,146.30
2022-07-30T01:20:27.469Z,175.00
2022-07-30T01:23:13.220Z,153.63
2022-07-30T01:25:49.125Z,122.00
2022-07-30T01:28:26.212Z,122.37
2022-07-30T01:30:56.513Z,124.17
2022-07-30T01:33:26.437Z,122.60
2022-07-30T01:35:55.915Z,122.47
2022-07-30T01:38:27.589Z,122.53
2022-07-30T01:40:59.496Z,122.40
2022-07-30T01:43:28.718Z,123.10
2022-07-30T01:45:56.866Z,123.23
2022-07-30T01:48:27.237Z,122.37
2022-07-30T01:50:58.516Z,122.80
2022-07-30T01:53:30.077Z,122.30
2022-07-30T01:56:01.049Z,121.77
2022-07-30T01:58:33.073Z,122.47
2022-07-30T02:01:09.661Z,122.80
2022-07-30T02:03:37.499Z,122.97
2022-07-30T02:06:18.190Z,122.77
2022-07-30T02:08:55.320Z,122.90
2022-07-30T02:11:44.087Z,122.40
2022-07-30T02:14:24.122Z,122.83
2022-07-30T02:16:56.402Z,122.87
2022-07-30T02:19:34.218Z,123.17
2022-07-30T02:22:08.907Z,122.63
2022-07-30T02:24:41.722Z,123.63
2022-07-30T02:27:20.374Z,123.77
2022-07-30T02:29:50.694Z,122.97
2022-07-30T02:32:23.731Z,123.23
2022-07-30T02:35:00.638Z,123.30
2022-07-30T02:37:43.736Z,123.23
2022-07-30T02:40:16.952Z,123.20
2022-07-30T02:42:47.719Z,123.17
2022-07-30T02:45:20.551Z,123.30
2022-07-30T02:47:54.923Z,123.37
2022-07-30T02:50:24.667Z,123.70
2022-07-30T02:52:54.490Z,123.60
2022-07-30T02:55:23.996Z,123.47
2022-07-30T02:57:52.998Z,123.17
2022-07-30T03:00:22.419Z,123.30
2022-07-30T03:02:56.763Z,123.40
2022-07-30T03:05:29.240Z,123.17
2022-07-30T03:07:59.672Z,123.13
2022-07-30T03:10:28.619Z,123.47
2022-07-30T03:12:58.380Z,122.90
2022-07-30T03:15:27.380Z,123.67
2022-07-30T03:17:56.256Z,123.40
2022-07-30T03:20:30.797Z,123.27
2022-07-30T03:23:01.580Z,123.07
2022-07-30T03:25:31.833Z,123.17
2022-07-30T03:28:03.987Z,122.97
2022-07-30T03:30:33.503Z,122.77
2022-07-30T03:33:01.777Z,123.27
2022-07-30T03:35:31.526Z,123.37
2022-07-30T03:38:00.499Z,122.63
2022-07-30T03:40:29.848Z,122.87
2022-07-30T03:42:57.876Z,122.17
2022-07-30T03:45:26.900Z,122.67
2022-07-30T03:48:00.143Z,122.77
2022-07-30T03:50:29.188Z,122.60
2022-07-30T03:52:57.108Z,122.07
2022-07-30T03:55:25.477Z,122.77
2022-07-30T03:58:12.908Z,122.20
2022-07-30T04:00:41.632Z,122.20
2022-07-30T04:03:10.468Z,122.57
2022-07-30T04:06:00.701Z,122.27
2022-07-30T04:08:30.069Z,122.20
2022-07-30T04:10:58.553Z,122.17
2022-07-30T04:13:54.633Z,122.50
2022-07-30T04:16:50.904Z,122.30
2022-07-30T04:19:54.192Z,122.33
2022-07-30T04:22:28.257Z,122.50
2022-07-30T04:24:56.777Z,122.07
2022-07-30T04:27:25.793Z,122.43
2022-07-30T04:29:54.604Z,122.50
2022-07-30T04:32:22.426Z,122.37
2022-07-30T04:35:05.369Z,122.57
2022-07-30T04:38:00.277Z,122.53
2022-07-30T04:40:28.202Z,122.50
2022-07-30T04:42:56.125Z,125.07
2022-07-30T04:45:23.829Z,123.97
2022-07-30T04:47:54.227Z,129.93
2022-07-30T04:50:46.629Z,123.70
2022-07-30T04:53:19.584Z,126.70
2022-07-30T04:55:54.154Z,122.37
2022-07-30T04:58:28.080Z,122.10
2022-07-30T05:00:57.386Z,122.77
2022-07-30T05:03:29.763Z,137.57
2022-07-30T05:05:59.068Z,122.00
2022-07-30T05:08:30.490Z,129.10
2022-07-30T05:11:00.754Z,122.97
2022-07-30T05:13:34.473Z,123.00
2022-07-30T05:16:04.063Z,132.90
2022-07-30T05:18:31.664Z,122.07
2022-07-30T05:20:59.294Z,122.90
2022-07-30T05:23:30.938Z,124.60
2022-07-30T05:26:06.029Z,124.53
2022-07-30T05:28:41.157Z,134.60
2022-07-30T05:31:13.633Z,121.10
2022-07-30T05:33:48.650Z,122.23
2022-07-30T05:36:21.395Z,121.20
2022-07-30T05:38:49.947Z,121.00
2022-07-30T05:41:32.427Z,124.33
2022-07-30T05:44:23.617Z,120.93
2022-07-30T05:46:52.176Z,121.37
2022-07-30T05:49:20.223Z,121.50
2022-07-30T05:51:47.355Z,122.80
2022-07-30T05:54:17.833Z,121.93
2022-07-30T05:57:08.521Z,120.83
2022-07-30T05:59:38.815Z,121.30
2022-07-30T06:02:10.171Z,122.67
2022-07-30T06:04:53.207Z,122.87
2022-07-30T06:07:21.383Z,122.40
2022-07-30T06:09:48.935Z,123.47
2022-07-30T06:12:16.741Z,122.20
2022-07-30T06:14:43.885Z,123.37
2022-07-30T06:17:16.656Z,122.07
2022-07-30T06:20:02.083Z,123.20
2022-07-30T06:22:33.692Z,122.90
2022-07-30T06:25:09.213Z,123.67
2022-07-30T06:27:39.846Z,123.13
2022-07-30T06:30:11.795Z,123.90
2022-07-30T06:32:40.055Z,123.00
2022-07-30T06:35:08.234Z,124.40
2022-07-30T06:38:06.224Z,125.23
2022-07-30T06:40:26.964Z,124.60
2022-07-30T06:43:15.504Z,126.50
2022-07-30T06:46:06.092Z,122.87
2022-07-30T06:48:43.844Z,123.37
2022-07-30T06:51:11.960Z,122.77
2022-07-30T06:53:42.677Z,122.00
2022-07-30T06:56:14.473Z,121.57
2022-07-30T06:58:49.424Z,122.20
2022-07-30T07:01:35.400Z,122.90
2022-07-30T07:04:03.679Z,122.03
2022-07-30T07:06:31.394Z,122.77
2022-07-30T07:08:59.673Z,123.07
2022-07-30T07:11:35.357Z,123.30
2022-07-30T07:14:08.794Z,121.50
2022-07-30T07:16:37.051Z,122.50
2022-07-30T07:20:01.235Z,121.30
2022-07-30T07:22:14.865Z,122.30
2022-07-30T07:24:44.105Z,122.40
2022-07-30T07:27:15.876Z,122.67
2022-07-30T07:30:04.702Z,122.87
2022-07-30T07:32:35.117Z,122.07
2022-07-30T07:35:03.044Z,125.07
2022-07-30T07:37:31.089Z,123.53
2022-07-30T07:39:59.837Z,127.67
2022-07-30T07:42:28.789Z,125.83
2022-07-30T07:44:56.353Z,125.80
2022-07-30T07:47:23.990Z,121.47
2022-07-30T07:50:11.693Z,122.87
2022-07-30T07:52:39.919Z,123.30
2022-07-30T07:55:08.310Z,123.90
2022-07-30T07:57:45.367Z,123.67
2022-07-30T08:03:45.633Z,123.50
2022-07-30T08:06:36.538Z,118.57
2022-07-30T08:09:43.482Z,122.77
2022-07-30T08:12:23.925Z,118.80
2022-07-30T08:15:04.152Z,119.60
2022-07-30T08:17:50.118Z,119.17
2022-07-30T08:20:22.522Z,118.37
2022-07-30T08:22:50.638Z,116.30
2022-07-30T08:25:22.371Z,116.67
2022-07-30T08:27:52.618Z,115.80
2022-07-30T08:30:20.979Z,117.57
2022-07-30T08:32:48.701Z,118.30
2022-07-30T08:35:18.970Z,118.27
2022-07-30T08:37:46.442Z,119.17
2022-07-30T08:40:14.989Z,118.73
2022-07-30T08:42:53.587Z,118.80
2022-07-30T08:45:22.128Z,119.03
2022-07-30T08:48:16.849Z,117.23
2022-07-30T08:50:47.408Z,116.97
2022-07-30T08:53:35.961Z,116.57
2022-07-30T08:56:09.386Z,115.87
2022-07-30T08:58:37.425Z,116.27
2022-07-30T09:01:06.175Z,117.57
2022-07-30T09:03:34.636Z,118.70
2022-07-30T09:06:05.178Z,123.17
2022-07-30T09:08:33.712Z,122.97
2022-07-30T09:11:01.833Z,118.40
2022-07-30T09:13:41.581Z,118.77
2022-07-30T09:16:24.409Z,119.90
2022-07-30T09:18:55.199Z,118.77
2022-07-30T09:21:29.079Z,115.30
2022-07-30T09:24:13.786Z,115.10
2022-07-30T09:27:02.037Z,115.73
2022-07-30T09:30:00.048Z,117.90
2022-07-30T09:32:50.035Z,113.47
2022-07-30T09:35:36.517Z,112.93
2022-07-30T09:38:11.277Z,113.73
2022-07-30T09:41:00.130Z,111.57
2022-07-30T09:43:50.847Z,114.03
2022-07-30T09:46:51.780Z,113.20
2022-07-30T09:49:41.739Z,113.90
2022-07-30T09:52:29.185Z,114.27
2022-07-30T09:54:57.091Z,114.70
2022-07-30T09:57:32.221Z,113.17
2022-07-30T10:00:23.558Z,110.70
2022-07-30T10:03:33.882Z,112.27
2022-07-30T10:06:37.857Z,111.23
2022-07-30T10:09:37.250Z,110.67
2022-07-30T10:12:11.256Z,113.10
2022-07-30T10:14:47.407Z,113.43
2022-07-30T10:17:18.455Z,110.20
2022-07-30T10:20:26.068Z,111.37
2022-07-30T10:23:15.927Z,111.70
2022-07-30T10:26:04.072Z,113.60
2022-07-30T10:29:07.208Z,113.40
2022-07-30T10:31:48.889Z,114.03
2022-07-30T10:34:23.672Z,116.60
2022-07-30T10:37:01.725Z,114.77
2022-07-30T10:39:39.939Z,115.87
2022-07-30T10:42:28.571Z,116.30
2022-07-30T10:45:30.964Z,118.77
2022-07-30T10:48:02.845Z,120.00
2022-07-30T10:50:49.229Z,117.60
2022-07-30T10:53:40.554Z,113.63
2022-07-30T10:56:25.879Z,112.10
2022-07-30T10:59:08.189Z,114.07
2022-07-30T11:01:51.697Z,120.27
2022-07-30T11:04:29.570Z,128.80
2022-07-30T11:07:23.898Z,118.40
2022-07-30T11:10:05.199Z,115.97
2022-07-30T11:12:44.092Z,115.43
2022-07-30T11:15:18.675Z,117.60
2022-07-30T11:18:01.489Z,120.07
2022-07-30T11:20:31.985Z,120.60
2022-07-30T11:23:29.095Z,121.87
2022-07-30T11:26:03.250Z,121.63
2022-07-30T11:28:44.648Z,119.37
2022-07-30T11:31:54.722Z,134.13
2022-07-30T11:34:24.095Z,120.27
2022-07-30T11:37:19.305Z,118.50
2022-07-30T11:39:57.019Z,120.57
2022-07-30T11:42:32.889Z,121.10
2022-07-30T11:45:19.957Z,120.10
2022-07-30T11:47:53.121Z,120.93
2022-07-30T11:50:33.632Z,118.67
2022-07-30T11:53:11.069Z,119.33
2022-07-30T11:55:47.653Z,118.60
2022-07-30T11:58:38.148Z,119.70
2022-07-30T12:01:15.518Z,119.77
2022-07-30T12:03:45.342Z,119.77
2022-07-30T12:06:18.126Z,118.47
2022-07-30T12:08:55.088Z,117.97
2022-07-30T12:11:32.785Z,118.90
2022-07-30T12:14:02.157Z,119.67
2022-07-30T12:16:31.858Z,118.37
2022-07-30T12:19:05.228Z,116.07
2022-07-30T12:21:33.406Z,113.70
2022-07-30T12:24:05.138Z,113.80
2022-07-30T12:26:34.471Z,112.80
2022-07-30T12:29:06.819Z,111.93
2022-07-30T12:31:38.415Z,114.47
2022-07-30T12:34:26.337Z,120.77
2022-07-30T12:36:54.956Z,126.67
2022-07-30T12:39:26.974Z,128.23
2022-07-30T12:41:58.769Z,120.07
2022-07-30T12:44:49.078Z,113.77
2022-07-30T12:47:24.002Z,113.70
2022-07-30T12:49:57.225Z,118.10
2022-07-30T12:52:31.609Z,129.57
2022-07-30T12:55:11.098Z,122.87
2022-07-30T12:57:57.307Z,121.17
2022-07-30T13:00:48.124Z,117.43
2022-07-30T13:03:27.450Z,114.60
2022-07-30T13:05:56.955Z,116.93
2022-07-30T13:08:54.332Z,116.17
2022-07-30T13:11:30.091Z,117.70
2022-07-30T13:13:57.589Z,119.67
2022-07-30T13:16:25.115Z,119.30
2022-07-30T13:18:53.213Z,124.30
2022-07-30T13:21:20.684Z,119.00
2022-07-30T13:23:48.222Z,119.07
2022-07-30T13:26:15.775Z,119.10
2022-07-30T13:28:46.396Z,120.87
2022-07-30T13:31:13.967Z,119.90
2022-07-30T13:33:41.519Z,119.87
2022-07-30T13:36:09.514Z,120.10
2022-07-30T13:38:37.115Z,119.53
2022-07-30T13:41:05.852Z,119.17
2022-07-30T13:43:34.289Z,117.07
2022-07-30T13:46:06.375Z,118.50
2022-07-30T13:48:36.787Z,117.40
2022-07-30T13:51:06.480Z,116.37
2022-07-30T13:53:41.583Z,122.77
2022-07-30T13:56:14.033Z,122.10
2022-07-30T13:58:49.011Z,119.00
2022-07-30T14:01:17.694Z,117.57
2022-07-30T14:03:49.974Z,118.17
2022-07-30T14:06:26.171Z,118.27
2022-07-30T14:08:54.201Z,118.40
2022-07-30T14:11:21.777Z,118.40
2022-07-30T14:13:54.430Z,119.30
2022-07-30T14:16:44.059Z,115.87
2022-07-30T14:19:22.593Z,111.90
2022-07-30T14:21:53.743Z,114.33
2022-07-30T14:24:22.380Z,120.63
2022-07-30T14:26:55.817Z,120.10
2022-07-30T14:29:26.446Z,121.87
2022-07-30T14:31:54.432Z,120.10
2022-07-30T14:34:22.454Z,120.60
2022-07-30T14:36:50.557Z,122.93
2022-07-30T14:39:18.201Z,126.50
2022-07-30T14:41:46.109Z,127.40
2022-07-30T14:44:13.724Z,123.90
2022-07-30T14:46:52.185Z,120.27
2022-07-30T14:49:23.919Z,118.13
2022-07-30T14:51:52.289Z,116.97
2022-07-30T14:54:19.980Z,117.47
2022-07-30T14:56:47.566Z,115.40
2022-07-30T14:59:15.190Z,116.30
2022-07-30T15:01:43.764Z,116.20
2022-07-30T15:04:11.491Z,114.37
2022-07-30T15:06:40.836Z,113.10
2022-07-30T15:09:09.797Z,120.33
2022-07-30T15:12:04.299Z,125.00
2022-07-30T15:14:26.881Z,127.57
2022-07-30T15:17:02.010Z,130.17
2022-07-30T15:19:34.413Z,123.37
2022-07-30T15:22:05.300Z,123.70
2022-07-30T15:24:33.302Z,120.23
2022-07-30T15:27:01.384Z,117.63
2022-07-30T15:29:29.991Z,117.03
2022-07-30T15:32:00.222Z,114.87
2022-07-30T15:34:29.746Z,114.97
2022-07-30T15:36:57.946Z,115.30
2022-07-30T15:39:25.414Z,116.20
2022-07-30T15:41:56.940Z,117.20
2022-07-30T15:44:25.220Z,119.17
2022-07-30T15:46:52.717Z,119.40
2022-07-30T15:49:20.251Z,120.50
2022-07-30T15:51:48.726Z,117.70
2022-07-30T15:54:22.479Z,118.67
2022-07-30T15:56:53.694Z,118.07
2022-07-30T15:59:22.116Z,118.67
2022-07-30T16:01:53.212Z,118.80
2022-07-30T16:04:21.666Z,117.90
2022-07-30T16:07:01.025Z,118.53
2022-07-30T16:09:29.415Z,117.60
2022-07-30T16:11:58.414Z,117.80
2022-07-30T16:14:26.614Z,118.60
2022-07-30T16:16:54.396Z,117.70
2022-07-30T16:19:21.905Z,119.07
2022-07-30T16:21:49.651Z,117.93
2022-07-30T16:24:17.579Z,119.30
2022-07-30T16:26:45.180Z,119.50
2022-07-30T16:29:14.010Z,118.90
2022-07-30T16:31:42.033Z,118.80
2022-07-30T16:34:09.579Z,119.87
2022-07-30T16:36:37.099Z,119.50
2022-07-30T16:39:05.879Z,119.93
2022-07-30T16:41:34.068Z,120.20
2022-07-30T16:44:02.142Z,119.17
2022-07-30T16:46:29.651Z,120.57
2022-07-30T16:48:57.274Z,119.77
2022-07-30T16:51:24.888Z,121.90
2022-07-30T16:53:52.544Z,119.67
2022-07-30T16:56:20.160Z,120.47
2022-07-30T16:58:47.667Z,122.10
2022-07-30T17:01:15.142Z,125.07
2022-07-30T17:03:42.696Z,124.50
2022-07-30T17:06:10.240Z,123.97
2022-07-30T17:08:37.879Z,124.00
2022-07-30T17:11:09.431Z,123.50
2022-07-30T17:13:40.179Z,125.37
2022-07-30T17:16:08.000Z,123.17
2022-07-30T17:18:35.447Z,124.40
2022-07-30T17:21:03.606Z,123.17
2022-07-30T17:23:31.190Z,124.17
2022-07-30T17:25:58.633Z,123.03
2022-07-30T17:28:27.139Z,123.97
2022-07-30T17:30:54.904Z,121.57
2022-07-30T17:33:22.396Z,123.17
2022-07-30T17:35:49.992Z,121.80
2022-07-30T17:38:17.481Z,121.70
2022-07-30T17:40:48.069Z,122.00
2022-07-30T17:43:17.045Z,122.50
2022-07-30T17:45:44.580Z,122.10
2022-07-30T17:48:12.120Z,121.30
2022-07-30T17:50:39.629Z,121.97
2022-07-30T17:53:07.311Z,121.20
2022-07-30T17:55:36.101Z,119.17
2022-07-30T17:58:05.121Z,121.77
2022-07-30T18:00:35.119Z,121.00
2022-07-30T18:03:03.475Z,120.60
2022-07-30T18:05:31.117Z,119.90
2022-07-30T18:07:58.810Z,118.30
2022-07-30T18:10:26.266Z,118.27
2022-07-30T18:12:53.842Z,119.97
2022-07-30T18:15:21.384Z,119.87
2022-07-30T18:17:48.911Z,117.43
2022-07-30T18:20:16.449Z,117.77
2022-07-30T18:22:43.986Z,119.17
2022-07-30T18:25:18.828Z,119.67
2022-07-30T18:27:49.107Z,119.57
2022-07-30T18:30:16.803Z,119.50
2022-07-30T18:32:45.269Z,119.00
2022-07-30T18:35:14.699Z,117.77
2022-07-30T18:37:43.763Z,118.20
2022-07-30T18:40:17.663Z,118.57
2022-07-30T18:42:47.349Z,118.27
2022-07-30T18:45:17.010Z,119.97
2022-07-30T18:47:47.791Z,119.43
2022-07-30T18:50:19.587Z,120.10
2022-07-30T18:52:48.703Z,120.07
2022-07-30T18:55:17.823Z,120.00
2022-07-30T18:57:45.766Z,119.83
2022-07-30T19:00:34.648Z,120.37
2022-07-30T19:03:03.123Z,119.87
2022-07-30T19:05:34.159Z,120.20
2022-07-30T19:08:02.414Z,119.50
2022-07-30T19:10:29.929Z,122.57
2022-07-30T19:12:57.607Z,120.40
2022-07-30T19:15:25.374Z,120.60
2022-07-30T19:17:52.927Z,119.47
2022-07-30T19:20:21.089Z,121.17
2022-07-30T19:22:49.811Z,120.30
2022-07-30T19:25:20.915Z,119.07
2022-07-30T19:27:48.438Z,120.93
2022-07-30T19:30:15.859Z,120.93
2022-07-30T19:32:43.700Z,121.00
2022-07-30T19:35:14.685Z,121.57
2022-07-30T19:37:42.412Z,122.13
2022-07-30T19:40:10.800Z,122.17
2022-07-30T19:42:41.492Z,122.27
2022-07-30T19:45:12.988Z,121.93
2022-07-30T19:47:42.463Z,122.90
2022-07-30T19:50:11.351Z,120.97
2022-07-30T19:52:40.102Z,122.50
2022-07-30T19:55:35.029Z,122.17
2022-07-30T19:58:16.277Z,123.10
2022-07-30T20:00:50.325Z,122.30
2022-07-30T20:03:25.697Z,122.33
2022-07-30T20:05:59.493Z,122.40
2022-07-30T20:08:28.184Z,122.87
2022-07-30T20:10:57.394Z,122.07
2022-07-30T20:13:44.898Z,122.20
2022-07-30T20:16:16.411Z,121.97
2022-07-30T20:18:46.043Z,122.53
2022-07-30T20:21:15.834Z,122.90
2022-07-30T20:23:45.087Z,122.97
2022-07-30T20:26:14.845Z,122.67
2022-07-30T20:28:47.642Z,122.47
2022-07-30T20:31:21.376Z,123.07
2022-07-30T20:33:50.943Z,123.80
2022-07-30T20:36:18.956Z,123.80
2022-07-30T20:38:46.815Z,123.17
2022-07-30T20:41:14.764Z,124.00
2022-07-30T20:46:31.833Z,122.30
2022-07-30T20:49:00.051Z,121.80
2022-07-30T20:51:33.430Z,122.73
2022-07-30T20:54:01.976Z,122.30
2022-07-30T20:56:29.104Z,122.30
2022-07-30T20:58:57.583Z,122.37
2022-07-30T21:01:25.086Z,121.87
2022-07-30T21:03:53.697Z,121.97
2022-07-30T21:06:24.216Z,122.30
2022-07-30T21:08:56.089Z,122.60
2022-07-30T21:11:24.308Z,122.23
2022-07-30T21:13:53.852Z,122.57
2022-07-30T21:16:23.571Z,121.97
2022-07-30T21:18:51.009Z,122.37
2022-07-30T21:21:30.562Z,122.37
2022-07-30T21:24:11.415Z,122.40
2022-07-30T21:26:40.776Z,124.87
2022-07-30T21:29:09.090Z,123.10
2022-07-30T21:32:01.652Z,122.67
2022-07-30T21:34:26.120Z,123.53
2022-07-30T21:36:54.432Z,123.50
2022-07-30T21:39:28.838Z,123.67
2022-07-30T21:41:57.276Z,123.27
2022-07-30T21:44:24.697Z,123.70
2022-07-30T21:46:53.746Z,124.17
2022-07-30T21:49:23.470Z,123.40
2022-07-30T21:51:51.054Z,123.17
2022-07-30T21:54:19.350Z,123.37
2022-07-30T21:56:58.289Z,123.37
2022-07-30T21:59:27.911Z,122.97
2022-07-30T22:01:56.210Z,124.10
2022-07-30T22:04:24.051Z,124.07
2022-07-30T22:06:54.442Z,123.90
2022-07-30T22:09:33.416Z,124.90
2022-07-30T22:12:09.703Z,123.87
2022-07-30T22:14:39.626Z,123.87
2022-07-30T22:17:22.408Z,122.80
2022-07-30T22:19:51.348Z,124.00
2022-07-30T22:22:26.561Z,123.10
2022-07-30T22:24:58.279Z,122.73
2022-07-30T22:27:40.085Z,123.57
2022-07-30T22:30:16.618Z,123.13
2022-07-30T22:32:44.234Z,123.70
2022-07-30T22:35:17.274Z,123.70
2022-07-30T22:37:48.326Z,123.37
2022-07-30T22:40:15.842Z,127.07
2022-07-30T22:42:49.764Z,123.17
2022-07-30T22:45:45.024Z,123.60
2022-07-30T22:48:10.739Z,123.50
2022-07-30T22:50:39.875Z,123.23
2022-07-30T22:53:23.571Z,123.23
2022-07-30T22:55:55.842Z,122.57
2022-07-30T22:58:26.446Z,122.90
2022-07-30T23:00:54.833Z,123.43
2022-07-30T23:03:22.485Z,122.97
2022-07-30T23:05:56.568Z,122.67
2022-07-30T23:08:29.605Z,123.30
2022-07-30T23:10:59.646Z,122.97
2022-07-30T23:12:18.423Z,123.27
2022-07-30T23:13:28.365Z,123.43
2022-07-30T23:15:55.824Z,123.13
2022-07-30T23:18:23.673Z,122.87
2022-07-30T23:20:50.804Z,123.87
2022-07-30T23:23:18.297Z,123.07
2022-07-30T23:25:46.940Z,123.57
2022-07-30T23:28:14.425Z,123.40
2022-07-30T23:30:41.557Z,123.57
2022-07-30T23:33:09.101Z,123.40
2022-07-30T23:35:36.813Z,123.17
2022-07-30T23:38:04.328Z,123.17
2022-07-30T23:40:31.824Z,123.30
2022-07-30T23:42:59.247Z,122.80
2022-07-30T23:45:26.857Z,123.30
2022-07-30T23:48:02.840Z,122.87
2022-07-30T23:50:33.498Z,123.10
2022-07-30T23:53:02.498Z,122.67
2022-07-30T23:55:31.964Z,123.17
2022-07-30T23:58:00.085Z,122.80
